createdAt,value
2023-04-22T00:00:31.182Z,6.40
2023-04-22T00:03:33.881Z,6.40
2023-04-22T00:06:17.469Z,6.30
2023-04-22T00:09:00.133Z,6.30
2023-04-22T00:11:42.380Z,6.20
2023-04-22T00:14:25.482Z,6.20
2023-04-22T00:17:07.960Z,6.10
2023-04-22T00:19:50.898Z,6.10
2023-04-22T00:22:33.217Z,6.00
2023-04-22T00:25:16.790Z,6.00
2023-04-22T00:27:59.602Z,5.90
2023-04-22T00:30:43.106Z,5.90
2023-04-22T00:33:25.733Z,5.90
2023-04-22T00:36:08.401Z,5.90
2023-04-22T00:38:51.610Z,5.80
2023-04-22T00:41:34.828Z,5.80
2023-04-22T00:44:18.417Z,5.80
2023-04-22T00:47:01.567Z,5.80
2023-04-22T00:49:44.138Z,5.70
2023-04-22T00:52:27.508Z,5.70
2023-04-22T00:55:11.293Z,5.70
2023-04-22T00:57:55.972Z,5.60
2023-04-22T01:00:38.593Z,5.60
2023-04-22T01:03:22.618Z,5.60
2023-04-22T01:06:05.431Z,5.60
2023-04-22T01:08:48.585Z,5.50
2023-04-22T01:11:31.387Z,5.50
2023-04-22T01:14:14.039Z,5.50
2023-04-22T01:16:56.612Z,5.40
2023-04-22T01:19:39.419Z,5.40
2023-04-22T01:22:24.012Z,5.40
2023-04-22T01:25:07.126Z,5.30
2023-04-22T01:27:49.781Z,5.30
2023-04-22T01:30:32.866Z,5.30
2023-04-22T01:33:16.154Z,5.20
2023-04-22T01:35:58.779Z,5.20
2023-04-22T01:38:41.399Z,5.20
2023-04-22T01:41:24.967Z,5.10
2023-04-22T01:44:07.582Z,5.10
2023-04-22T01:46:50.987Z,5.00
2023-04-22T01:49:33.347Z,5.00
2023-04-22T01:52:16.105Z,5.00
2023-04-22T01:54:59.020Z,5.00
2023-04-22T01:57:41.705Z,5.00
2023-04-22T02:00:24.151Z,5.00
2023-04-22T02:03:06.953Z,4.90
2023-04-22T02:05:49.335Z,4.90
2023-04-22T02:08:32.251Z,4.90
2023-04-22T02:11:14.568Z,4.80
2023-04-22T02:13:57.128Z,4.90
2023-04-22T02:16:44.141Z,4.80
2023-04-22T02:19:26.777Z,4.70
2023-04-22T02:22:10.493Z,4.70
2023-04-22T02:24:53.067Z,4.70
2023-04-22T02:27:36.739Z,4.70
2023-04-22T02:30:19.353Z,4.60
2023-04-22T02:33:02.651Z,4.60
2023-04-22T02:35:45.636Z,4.60
2023-04-22T02:38:33.024Z,4.60
2023-04-22T02:41:15.769Z,4.60
2023-04-22T02:43:58.746Z,4.60
2023-04-22T02:46:42.946Z,4.60
2023-04-22T02:49:25.801Z,4.50
2023-04-22T02:52:08.991Z,4.50
2023-04-22T02:54:51.400Z,4.60
2023-04-22T02:57:34.226Z,4.60
2023-04-22T03:00:18.348Z,4.60
2023-04-22T03:03:01.307Z,4.60
2023-04-22T03:05:47.339Z,4.60
2023-04-22T03:08:30.277Z,4.70
2023-04-22T03:11:13.964Z,4.60
2023-04-22T03:13:57.902Z,4.60
2023-04-22T03:16:40.772Z,4.60
2023-04-22T03:19:23.485Z,4.60
2023-04-22T03:22:05.850Z,4.60
2023-04-22T03:24:48.560Z,4.50
2023-04-22T03:27:30.962Z,4.50
2023-04-22T03:30:13.568Z,4.50
2023-04-22T03:32:56.873Z,4.50
2023-04-22T03:35:51.438Z,4.50
2023-04-22T03:38:33.877Z,4.50
2023-04-22T03:41:19.249Z,4.50
2023-04-22T03:44:03.568Z,4.50
2023-04-22T03:46:48.393Z,4.50
2023-04-22T03:49:38.279Z,4.60
2023-04-22T03:52:21.306Z,4.60
2023-04-22T03:55:11.912Z,4.60
2023-04-22T03:57:54.685Z,4.60
2023-04-22T04:00:37.294Z,4.60
2023-04-22T04:03:30.310Z,4.60
2023-04-22T04:06:14.037Z,4.60
2023-04-22T04:08:56.609Z,4.60
2023-04-22T04:11:38.982Z,4.70
2023-04-22T04:14:22.228Z,4.70
2023-04-22T04:17:09.269Z,4.80
2023-04-22T04:19:55.664Z,4.80
2023-04-22T04:22:38.962Z,4.90
2023-04-22T04:25:22.926Z,5.00
2023-04-22T04:28:09.528Z,5.00
2023-04-22T04:30:53.900Z,5.10
2023-04-22T04:33:37.678Z,5.20
2023-04-22T04:36:20.571Z,5.30
2023-04-22T04:39:04.241Z,5.60
2023-04-22T04:41:49.103Z,5.90
2023-04-22T04:44:32.456Z,6.30
2023-04-22T04:47:17.755Z,6.70
2023-04-22T04:50:02.126Z,7.20
2023-04-22T04:52:44.849Z,7.60
2023-04-22T04:55:27.347Z,8.10
2023-04-22T04:58:10.964Z,8.30
2023-04-22T05:00:53.647Z,8.60
2023-04-22T05:03:36.503Z,9.10
2023-04-22T05:06:20.281Z,9.50
2023-04-22T05:09:08.216Z,9.90
2023-04-22T05:11:51.818Z,10.30
2023-04-22T05:14:36.989Z,10.70
2023-04-22T05:17:19.860Z,11.10
2023-04-22T05:20:03.648Z,11.60
2023-04-22T05:22:46.241Z,11.90
2023-04-22T05:25:30.499Z,12.40
2023-04-22T05:28:19.140Z,12.70
2023-04-22T05:31:08.170Z,13.10
2023-04-22T05:33:51.175Z,13.50
2023-04-22T05:36:33.892Z,13.90
2023-04-22T05:39:16.379Z,14.20
2023-04-22T05:41:59.660Z,14.60
2023-04-22T05:44:42.750Z,14.80
2023-04-22T05:47:25.672Z,15.00
2023-04-22T05:50:08.890Z,15.30
2023-04-22T05:52:58.492Z,15.40
2023-04-22T05:55:40.891Z,15.70
2023-04-22T05:58:24.834Z,15.80
2023-04-22T06:01:24.991Z,15.70
2023-04-22T06:04:15.316Z,16.00
2023-04-22T06:06:57.869Z,16.20
2023-04-22T06:09:40.766Z,16.30
2023-04-22T06:12:23.693Z,16.40
2023-04-22T06:15:06.791Z,16.40
2023-04-22T06:17:49.648Z,16.60
2023-04-22T06:20:36.082Z,16.70
2023-04-22T06:23:18.610Z,16.90
2023-04-22T06:26:01.779Z,17.00
2023-04-22T06:28:45.356Z,17.20
2023-04-22T06:31:33.263Z,17.30
2023-04-22T06:34:15.891Z,17.30
2023-04-22T06:36:58.783Z,17.40
2023-04-22T06:39:41.430Z,17.50
2023-04-22T06:42:46.106Z,17.50
2023-04-22T06:46:01.537Z,17.70
2023-04-22T06:48:57.642Z,17.80
2023-04-22T06:52:00.356Z,17.70
2023-04-22T06:54:43.036Z,17.90
2023-04-22T06:57:30.444Z,17.90
2023-04-22T07:00:14.682Z,18.00
2023-04-22T07:02:58.436Z,18.00
2023-04-22T07:05:41.168Z,18.00
2023-04-22T07:08:24.330Z,18.10
2023-04-22T07:11:06.886Z,18.20
2023-04-22T07:14:07.503Z,18.40
2023-04-22T07:16:50.072Z,18.50
2023-04-22T07:19:33.332Z,18.70
2023-04-22T07:22:17.721Z,18.50
2023-04-22T07:25:00.172Z,18.10
2023-04-22T07:27:43.010Z,18.30
2023-04-22T07:30:25.586Z,18.50
2023-04-22T07:33:10.527Z,18.60
2023-04-22T07:35:52.879Z,18.80
2023-04-22T07:38:35.476Z,18.80
2023-04-22T07:41:17.722Z,18.90
2023-04-22T07:44:00.354Z,19.00
2023-04-22T07:46:43.332Z,18.90
2023-04-22T07:49:25.954Z,19.00
2023-04-22T07:52:09.181Z,19.10
2023-04-22T07:54:59.542Z,19.20
2023-04-22T07:57:41.972Z,19.30
2023-04-22T08:00:24.759Z,19.30
2023-04-22T08:03:17.128Z,19.30
2023-04-22T08:06:05.649Z,19.30
2023-04-22T08:08:49.058Z,19.30
2023-04-22T08:11:41.739Z,19.40
2023-04-22T08:14:28.186Z,19.50
2023-04-22T08:17:11.102Z,19.40
2023-04-22T08:19:53.680Z,19.30
2023-04-22T08:22:42.762Z,19.30
2023-04-22T08:25:25.554Z,19.30
2023-04-22T08:28:08.417Z,19.30
2023-04-22T08:30:51.171Z,19.40
2023-04-22T08:33:58.205Z,19.60
2023-04-22T08:37:12.947Z,19.60
2023-04-22T08:40:10.577Z,19.70
2023-04-22T08:42:53.081Z,19.70
2023-04-22T08:45:37.950Z,19.80
2023-04-22T08:48:20.978Z,19.70
2023-04-22T08:51:04.521Z,19.70
2023-04-22T08:53:47.665Z,19.60
2023-04-22T08:56:31.963Z,19.50
2023-04-22T08:59:14.379Z,19.40
2023-04-22T09:01:58.541Z,19.00
2023-04-22T09:04:43.325Z,19.20
2023-04-22T09:07:30.209Z,19.30
2023-04-22T09:10:12.699Z,19.40
2023-04-22T09:12:56.641Z,19.40
2023-04-22T09:15:40.942Z,19.60
2023-04-22T09:18:23.447Z,19.70
2023-04-22T09:21:06.300Z,19.80
2023-04-22T09:23:54.037Z,19.90
2023-04-22T09:26:40.846Z,19.60
2023-04-22T09:29:29.541Z,19.50
2023-04-22T09:32:12.100Z,19.40
2023-04-22T09:34:55.995Z,19.30
2023-04-22T09:37:48.900Z,19.20
2023-04-22T09:40:32.984Z,19.20
2023-04-22T09:43:20.356Z,19.40
2023-04-22T09:46:03.414Z,19.40
2023-04-22T09:48:47.462Z,19.20
2023-04-22T09:51:31.001Z,19.10
2023-04-22T09:54:13.738Z,19.10
2023-04-22T09:56:56.696Z,19.00
2023-04-22T09:59:39.895Z,19.10
2023-04-22T10:02:29.988Z,19.20
2023-04-22T10:05:13.023Z,19.30
2023-04-22T10:07:56.665Z,19.10
2023-04-22T10:10:39.802Z,18.90
2023-04-22T10:13:23.046Z,19.20
2023-04-22T10:16:07.196Z,19.50
2023-04-22T10:18:51.421Z,19.60
2023-04-22T10:21:34.835Z,19.50
2023-04-22T10:24:18.806Z,19.30
2023-04-22T10:27:06.515Z,19.20
2023-04-22T10:29:49.406Z,19.20
2023-04-22T10:32:33.361Z,19.20
2023-04-22T10:35:16.633Z,19.60
2023-04-22T10:37:58.957Z,19.70
2023-04-22T10:41:00.042Z,19.50
2023-04-22T10:43:43.274Z,19.10
2023-04-22T10:46:37.856Z,19.10
2023-04-22T10:49:23.065Z,19.10
2023-04-22T10:52:09.349Z,19.10
2023-04-22T10:54:51.695Z,19.20
2023-04-22T10:57:41.508Z,19.00
2023-04-22T11:00:41.886Z,19.10
2023-04-22T11:03:37.109Z,19.40
2023-04-22T11:06:27.827Z,19.90
2023-04-22T11:09:13.052Z,20.00
2023-04-22T11:12:33.933Z,20.00
2023-04-22T11:15:20.129Z,19.80
2023-04-22T11:18:02.552Z,19.60
2023-04-22T11:20:48.394Z,19.50
2023-04-22T11:23:31.417Z,19.60
2023-04-22T11:26:14.179Z,19.70
2023-04-22T11:29:02.479Z,19.80
2023-04-22T11:32:07.171Z,19.90
2023-04-22T11:34:52.189Z,19.80
2023-04-22T11:38:08.810Z,19.90
2023-04-22T11:40:51.562Z,20.10
2023-04-22T11:43:34.289Z,19.80
2023-04-22T11:46:16.734Z,19.70
2023-04-22T11:49:16.503Z,19.90
2023-04-22T11:51:59.866Z,19.90
2023-04-22T11:54:42.469Z,20.00
2023-04-22T11:57:26.671Z,20.00
2023-04-22T12:00:15.023Z,20.10
2023-04-22T12:02:59.332Z,19.90
2023-04-22T12:05:44.971Z,19.80
2023-04-22T12:08:34.585Z,19.90
2023-04-22T12:11:17.170Z,20.00
2023-04-22T12:14:06.288Z,20.10
2023-04-22T12:16:50.542Z,19.90
2023-04-22T12:19:32.824Z,19.80
2023-04-22T12:22:30.050Z,19.90
2023-04-22T12:25:12.283Z,20.00
2023-04-22T12:27:54.869Z,20.00
2023-04-22T12:30:37.519Z,20.20
2023-04-22T12:33:20.076Z,20.30
2023-04-22T12:36:02.836Z,20.40
2023-04-22T12:38:45.435Z,20.50
2023-04-22T12:41:27.876Z,20.40
2023-04-22T12:44:10.782Z,20.10
2023-04-22T12:46:53.236Z,20.00
2023-04-22T12:49:38.321Z,19.90
2023-04-22T12:52:21.564Z,20.00
2023-04-22T12:55:04.873Z,19.90
2023-04-22T12:57:49.286Z,19.80
2023-04-22T13:00:32.162Z,19.60
2023-04-22T13:03:14.803Z,19.40
2023-04-22T13:05:58.146Z,19.20
2023-04-22T13:08:40.616Z,19.10
2023-04-22T13:11:24.700Z,19.00
2023-04-22T13:14:07.139Z,18.80
2023-04-22T13:16:49.897Z,18.70
2023-04-22T13:19:32.326Z,18.60
2023-04-22T13:22:14.947Z,18.60
2023-04-22T13:24:57.516Z,18.70
2023-04-22T13:27:40.301Z,18.70
2023-04-22T13:30:22.731Z,18.80
2023-04-22T13:33:05.324Z,19.00
2023-04-22T13:35:47.575Z,19.10
2023-04-22T13:38:30.026Z,19.20
2023-04-22T13:41:12.387Z,19.20
2023-04-22T13:43:57.649Z,19.20
2023-04-22T13:46:41.579Z,19.20
2023-04-22T13:49:24.234Z,19.30
2023-04-22T13:52:06.718Z,19.30
2023-04-22T13:54:49.959Z,19.30
2023-04-22T13:57:32.591Z,19.20
2023-04-22T14:00:15.474Z,19.20
2023-04-22T14:02:58.751Z,19.20
2023-04-22T14:05:41.272Z,19.30
2023-04-22T14:08:24.009Z,19.40
2023-04-22T14:11:07.763Z,19.40
2023-04-22T14:13:50.102Z,19.40
2023-04-22T14:16:33.147Z,19.30
2023-04-22T14:19:15.719Z,19.30
2023-04-22T14:21:58.615Z,19.50
2023-04-22T14:24:41.121Z,19.40
2023-04-22T14:27:23.792Z,19.30
2023-04-22T14:30:08.403Z,19.30
2023-04-22T14:32:51.145Z,19.30
2023-04-22T14:35:37.536Z,19.10
2023-04-22T14:38:21.385Z,19.00
2023-04-22T14:41:06.011Z,19.00
2023-04-22T14:43:48.544Z,19.10
2023-04-22T14:46:30.956Z,19.10
2023-04-22T14:49:13.753Z,19.20
2023-04-22T14:51:56.257Z,19.20
2023-04-22T14:54:38.763Z,19.20
2023-04-22T14:57:21.130Z,19.20
2023-04-22T15:00:08.018Z,19.20
2023-04-22T15:02:50.617Z,19.10
2023-04-22T15:05:33.550Z,19.10
2023-04-22T15:08:16.468Z,19.00
2023-04-22T15:10:59.988Z,19.00
2023-04-22T15:13:43.219Z,19.00
2023-04-22T15:16:26.239Z,19.10
2023-04-22T15:19:08.977Z,19.00
2023-04-22T15:21:51.604Z,18.90
2023-04-22T15:24:34.244Z,19.00
2023-04-22T15:27:17.009Z,18.90
2023-04-22T15:29:59.441Z,19.00
2023-04-22T15:32:42.074Z,19.00
2023-04-22T15:35:24.566Z,19.00
2023-04-22T15:38:07.253Z,18.90
2023-04-22T15:40:49.593Z,18.80
2023-04-22T15:43:32.100Z,18.80
2023-04-22T15:46:14.937Z,18.70
2023-04-22T15:48:58.093Z,18.60
2023-04-22T15:51:41.393Z,18.70
2023-04-22T15:54:23.823Z,18.70
2023-04-22T15:57:06.171Z,18.70
2023-04-22T15:59:53.692Z,18.80
2023-04-22T16:02:43.628Z,18.80
2023-04-22T16:05:28.311Z,18.70
2023-04-22T16:08:12.811Z,18.60
2023-04-22T16:10:55.388Z,18.60
2023-04-22T16:13:41.271Z,18.50
2023-04-22T16:16:25.381Z,18.50
2023-04-22T16:19:08.537Z,18.50
2023-04-22T16:21:51.144Z,18.40
2023-04-22T16:24:34.491Z,18.40
2023-04-22T16:27:18.674Z,18.40
2023-04-22T16:30:00.965Z,18.30
2023-04-22T16:32:43.505Z,18.30
2023-04-22T16:35:25.732Z,18.20
2023-04-22T16:38:10.065Z,18.10
2023-04-22T16:40:54.293Z,18.00
2023-04-22T16:43:39.117Z,18.00
2023-04-22T16:46:23.275Z,18.00
2023-04-22T16:49:09.105Z,17.90
2023-04-22T16:51:52.956Z,17.90
2023-04-22T16:54:35.461Z,17.80
2023-04-22T16:57:18.065Z,17.70
2023-04-22T17:00:00.653Z,17.60
2023-04-22T17:02:43.254Z,17.60
2023-04-22T17:05:26.230Z,17.50
2023-04-22T17:08:08.700Z,17.50
2023-04-22T17:10:52.552Z,17.50
2023-04-22T17:13:34.946Z,17.80
2023-04-22T17:16:18.011Z,18.20
2023-04-22T17:19:00.608Z,17.80
2023-04-22T17:21:43.876Z,17.50
2023-04-22T17:24:26.256Z,17.20
2023-04-22T17:27:08.922Z,17.00
2023-04-22T17:29:51.869Z,16.80
2023-04-22T17:32:35.011Z,16.70
2023-04-22T17:35:17.978Z,16.60
2023-04-22T17:38:00.829Z,16.50
2023-04-22T17:40:43.898Z,16.40
2023-04-22T17:43:26.895Z,16.20
2023-04-22T17:46:09.971Z,16.10
2023-04-22T17:48:53.351Z,16.00
2023-04-22T17:51:36.016Z,15.90
2023-04-22T17:54:18.704Z,15.80
2023-04-22T17:57:02.192Z,15.70
2023-04-22T17:59:45.025Z,15.60
2023-04-22T18:02:27.613Z,15.50
2023-04-22T18:05:10.430Z,15.40
2023-04-22T18:07:57.666Z,15.30
2023-04-22T18:10:40.499Z,15.20
2023-04-22T18:13:22.755Z,15.00
2023-04-22T18:16:05.656Z,15.00
2023-04-22T18:18:47.851Z,14.90
2023-04-22T18:21:31.410Z,14.80
2023-04-22T18:24:13.783Z,14.70
2023-04-22T18:26:56.507Z,14.60
2023-04-22T18:29:39.242Z,14.50
2023-04-22T18:32:22.198Z,14.40
2023-04-22T18:35:05.196Z,14.30
2023-04-22T18:37:47.668Z,14.20
2023-04-22T18:40:30.109Z,14.00
2023-04-22T18:43:12.629Z,13.90
2023-04-22T18:45:55.038Z,13.70
2023-04-22T18:48:37.627Z,13.60
2023-04-22T18:51:19.939Z,13.50
2023-04-22T18:54:02.684Z,13.40
2023-04-22T18:56:46.075Z,13.30
2023-04-22T18:59:28.732Z,13.20
2023-04-22T19:02:15.605Z,13.10
2023-04-22T19:04:59.267Z,13.10
2023-04-22T19:07:44.481Z,13.00
2023-04-22T19:10:27.734Z,12.90
2023-04-22T19:13:22.376Z,12.80
2023-04-22T19:16:11.510Z,12.70
2023-04-22T19:18:53.784Z,12.60
2023-04-22T19:21:36.356Z,12.50
2023-04-22T19:24:18.560Z,12.40
2023-04-22T19:27:02.831Z,12.40
2023-04-22T19:29:51.168Z,12.30
2023-04-22T19:32:34.023Z,12.20
2023-04-22T19:35:16.539Z,12.20
2023-04-22T19:38:00.797Z,12.10
2023-04-22T19:40:43.089Z,12.00
2023-04-22T19:43:27.172Z,11.90
2023-04-22T19:46:09.677Z,11.90
2023-04-22T19:48:52.457Z,11.80
2023-04-22T19:51:35.483Z,11.70
2023-04-22T19:54:21.714Z,11.60
2023-04-22T19:57:06.610Z,11.60
2023-04-22T19:59:50.463Z,11.50
2023-04-22T20:02:34.567Z,11.50
2023-04-22T20:05:18.991Z,11.40
2023-04-22T20:08:02.341Z,11.40
2023-04-22T20:10:46.752Z,11.30
2023-04-22T20:13:29.432Z,11.30
2023-04-22T20:16:13.464Z,11.20
2023-04-22T20:18:55.900Z,11.10
2023-04-22T20:21:40.030Z,11.10
2023-04-22T20:24:22.721Z,11.10
2023-04-22T20:27:05.446Z,11.10
2023-04-22T20:29:50.026Z,11.00
2023-04-22T20:32:32.716Z,11.00
2023-04-22T20:35:16.727Z,11.00
2023-04-22T20:38:00.590Z,11.00
2023-04-22T20:40:45.505Z,11.00
2023-04-22T20:43:27.944Z,11.00
2023-04-22T20:46:10.271Z,11.10
2023-04-22T20:48:52.843Z,11.10
2023-04-22T20:51:35.375Z,11.20
2023-04-22T20:54:28.654Z,11.20
2023-04-22T20:57:11.873Z,11.30
2023-04-22T20:59:54.955Z,11.30
2023-04-22T21:02:39.009Z,11.30
2023-04-22T21:05:22.136Z,11.30
2023-04-22T21:08:20.972Z,11.30
2023-04-22T21:11:03.742Z,11.20
2023-04-22T21:13:46.297Z,11.10
2023-04-22T21:16:31.773Z,11.00
2023-04-22T21:19:15.681Z,11.00
2023-04-22T21:22:00.737Z,11.00
2023-04-22T21:24:44.312Z,10.90
2023-04-22T21:27:27.130Z,10.70
2023-04-22T21:30:10.197Z,10.60
2023-04-22T21:32:52.772Z,10.50
2023-04-22T21:35:35.415Z,10.40
2023-04-22T21:38:19.731Z,10.30
2023-04-22T21:41:02.275Z,10.30
2023-04-22T21:43:45.252Z,10.20
2023-04-22T21:46:27.621Z,10.20
2023-04-22T21:49:09.981Z,10.10
2023-04-22T21:51:52.326Z,10.00
2023-04-22T21:54:34.872Z,10.00
2023-04-22T21:57:17.095Z,10.00
2023-04-22T21:59:59.486Z,9.90
2023-04-22T22:02:45.178Z,9.80
2023-04-22T22:05:28.193Z,9.80
2023-04-22T22:08:10.765Z,9.70
2023-04-22T22:10:53.402Z,9.70
2023-04-22T22:13:35.667Z,9.60
2023-04-22T22:16:18.234Z,9.60
2023-04-22T22:19:02.655Z,9.60
2023-04-22T22:21:45.225Z,9.50
2023-04-22T22:24:27.486Z,9.50
2023-04-22T22:27:10.876Z,9.40
2023-04-22T22:29:53.456Z,9.40
2023-04-22T22:32:36.419Z,9.40
2023-04-22T22:35:18.663Z,9.30
2023-04-22T22:38:01.286Z,9.30
2023-04-22T22:40:44.327Z,9.20
2023-04-22T22:43:27.545Z,9.20
2023-04-22T22:46:09.906Z,9.10
2023-04-22T22:48:52.368Z,9.10
2023-04-22T22:51:34.857Z,9.00
2023-04-22T22:54:17.662Z,9.00
2023-04-22T22:57:00.036Z,8.90
2023-04-22T22:59:42.435Z,8.90
2023-04-22T23:02:24.912Z,8.90
2023-04-22T23:05:10.185Z,8.90
2023-04-22T23:07:52.980Z,8.90
2023-04-22T23:10:35.784Z,9.00
2023-04-22T23:13:18.152Z,9.20
2023-04-22T23:16:01.045Z,9.30
2023-04-22T23:18:44.503Z,9.40
2023-04-22T23:21:28.143Z,9.50
2023-04-22T23:24:14.769Z,9.50
2023-04-22T23:26:57.407Z,9.60
2023-04-22T23:29:40.184Z,9.50
2023-04-22T23:32:26.565Z,9.50
2023-04-22T23:35:10.203Z,9.50
2023-04-22T23:37:53.969Z,9.50
2023-04-22T23:40:36.538Z,9.50
2023-04-22T23:43:19.274Z,9.50
2023-04-22T23:46:01.736Z,9.50
2023-04-22T23:48:44.768Z,9.50
2023-04-22T23:51:28.392Z,9.40
2023-04-22T23:54:11.152Z,9.30
2023-04-22T23:56:54.161Z,9.20
2023-04-22T23:59:36.961Z,9.10
